Погода Тшижечена неделю

Подляское воеводство, Польша

15 - 21 июля
  • 15июля
    Сегодня
    +17°
    +28°
    Ясно и безоблачно
    ВремяПогодаТемператураВлажностьДавлениеВетер, м/сВероятность осадков
    02:00Небольшая облачность+16°C91 %746 мм1.6 м/с2 %
    05:00Облачно с прояснениями+15°C89 %747 мм2.0 м/с2 %
    08:00Облачно с прояснениями, небольшой дождь+19°C81 %747 мм1.6 м/с19 %
    11:00Пасмурно, сплошная облачность+23°C74 %747 мм0.2 м/с44 %
    14:00Ясно и безоблачно+27°C59 %747 мм1.1 м/с15 %
    17:00Ясно и безоблачно+27°C54 %746 мм1.8 м/с2 %
    20:00Ясно и безоблачно+24°C72 %746 мм1.3 м/с2 %
    23:00Ясно и безоблачно+19°C83 %746 мм1.7 м/с2 %
  • 16июля
    Вторник
    +20°
    +31°
    Практически безоблачно
    ВремяПогодаТемператураВлажностьДавлениеВетер, м/сВероятность осадков
    02:00Облачно с прояснениями+17°C90 %746 мм1.8 м/с2 %
    05:00Ясно и безоблачно+18°C93 %746 мм2.0 м/с2 %
    08:00Ясно и безоблачно+24°C73 %747 мм1.9 м/с2 %
    11:00Ясно и безоблачно+29°C51 %746 мм2.9 м/с1 %
    14:00Практически безоблачно+30°C45 %746 мм3.1 м/с1 %
    17:00Ясно и безоблачно+31°C45 %745 мм3.2 м/с6 %
    20:00Облачно с прояснениями+28°C54 %744 мм3.3 м/с13 %
    23:00Облачно с прояснениями+21°C81 %744 мм3.3 м/с30 %
  • 17июля
    Среда
    +17°
    +29°
    Ясно и безоблачно
    ВремяПогодаТемператураВлажностьДавлениеВетер, м/сВероятность осадков
    02:00Облачно с прояснениями+21°C93 %744 мм2.4 м/с40 %
    05:00Облачно с прояснениями+20°C97 %745 мм2.5 м/с47 %
    08:00Облачно с прояснениями+22°C81 %746 мм3.7 м/с20 %
    11:00Практически безоблачно+26°C60 %747 мм4.1 м/с21 %
    14:00Ясно и безоблачно+28°C46 %747 мм4.9 м/с2 %
    17:00Практически безоблачно+28°C42 %747 мм4.5 м/с2 %
    20:00Небольшая облачность+25°C51 %748 мм2.2 м/с2 %
    23:00Ясно и безоблачно+20°C62 %749 мм1.8 м/с2 %
  • 18июля
    Четверг
    +13°
    +26°
    Практически безоблачно
    ВремяПогодаТемператураВлажностьДавлениеВетер, м/сВероятность осадков
    02:00Ясно и безоблачно+18°C82 %749 мм2.1 м/с4 %
    05:00Ясно и безоблачно+17°C93 %749 мм1.8 м/с3 %
    08:00Ясно и безоблачно+20°C64 %750 мм2.9 м/с4 %
    11:00Облачно с прояснениями+23°C49 %750 мм4.4 м/с21 %
    14:00Практически безоблачно+25°C44 %750 мм4.3 м/с13 %
    17:00Практически безоблачно+25°C41 %750 мм4.5 м/с5 %
    20:00Практически безоблачно+23°C48 %750 мм2.7 м/с2 %
    23:00Практически безоблачно+17°C68 %750 мм1.8 м/с2 %
  • 19июля
    Пятница
    +12°
    +25°
    Облачно с прояснениями
    ВремяПогодаТемператураВлажностьДавлениеВетер, м/сВероятность осадков
    02:00Ясно и безоблачно+15°C82 %750 мм1.9 м/с2 %
    05:00Облачно с прояснениями+14°C90 %750 мм1.3 м/с2 %
    08:00Облачно с прояснениями+19°C65 %750 мм2.3 м/с2 %
    11:00Облачно с прояснениями+23°C51 %750 мм4.6 м/с6 %
    14:00Облачно с прояснениями+24°C41 %749 мм4.6 м/с10 %
    17:00Облачно с прояснениями+24°C40 %748 мм4.1 м/с7 %
    20:00Облачно с прояснениями+22°C53 %748 мм3.0 м/с2 %
    23:00Ясно и безоблачно+16°C70 %748 мм1.8 м/с2 %
Мы используем cookies
Соглашаюсь